createdAt,value
2023-01-06T08:53:05.752Z,9.52
2023-01-06T08:55:33.899Z,7.63
2023-01-06T08:58:01.687Z,12.55
2023-01-06T09:00:29.686Z,9.18
2023-01-06T09:02:57.873Z,7.38
2023-01-06T09:05:25.624Z,9.45
2023-01-06T09:07:53.427Z,8.25
2023-01-06T09:10:23.123Z,8.70
2023-01-06T09:12:50.797Z,7.60
2023-01-06T09:15:19.121Z,7.18
2023-01-06T09:17:47.753Z,11.48
2023-01-06T09:20:15.398Z,6.15
2023-01-06T09:22:44.905Z,6.07
2023-01-06T09:25:12.696Z,7.25
2023-01-06T09:27:41.669Z,7.38
2023-01-06T09:30:10.493Z,8.60
2023-01-06T09:32:40.219Z,8.00
2023-01-06T09:35:09.077Z,8.20
2023-01-06T09:37:37.177Z,13.07
2023-01-06T09:40:06.066Z,14.20
2023-01-06T09:42:51.030Z,8.20
2023-01-06T09:45:21.026Z,7.72
2023-01-06T09:47:54.911Z,9.20
2023-01-06T09:50:31.812Z,7.13
2023-01-06T09:53:03.609Z,6.95
2023-01-06T09:55:35.978Z,8.43
2023-01-06T09:58:11.109Z,7.75
2023-01-06T10:00:41.943Z,7.63
2023-01-06T10:03:14.680Z,6.10
2023-01-06T10:05:55.228Z,6.25
2023-01-06T10:08:34.077Z,5.10
2023-01-06T10:11:12.469Z,10.63
2023-01-06T10:13:52.096Z,9.98
2023-01-06T10:16:32.604Z,9.73
2023-01-06T10:19:12.252Z,6.65
2023-01-06T10:21:48.022Z,6.28
2023-01-06T10:24:40.755Z,8.63
2023-01-06T10:27:20.519Z,8.65
2023-01-06T10:29:53.103Z,9.25
2023-01-06T10:32:22.532Z,6.68
2023-01-06T10:34:51.281Z,5.35
2023-01-06T10:37:23.795Z,7.07
2023-01-06T10:39:59.276Z,19.67
2023-01-06T10:42:33.962Z,15.82
2023-01-06T10:45:03.395Z,14.18
2023-01-06T10:47:34.391Z,10.93
2023-01-06T10:50:02.283Z,12.30
2023-01-06T10:52:31.939Z,11.38
2023-01-06T10:55:05.435Z,12.45
2023-01-06T10:57:36.933Z,18.30
2023-01-06T11:00:12.048Z,24.13
2023-01-06T11:02:44.947Z,16.58
2023-01-06T11:05:18.045Z,12.18
2023-01-06T11:07:55.790Z,9.45
2023-01-06T11:10:30.535Z,9.48
2023-01-06T11:13:02.689Z,8.57
2023-01-06T11:15:38.664Z,9.88
2023-01-06T11:18:19.297Z,10.63
2023-01-06T11:21:03.200Z,11.65
2023-01-06T11:23:31.326Z,7.15
2023-01-06T11:26:12.856Z,28.55
2023-01-06T11:28:41.288Z,18.30
2023-01-06T11:31:16.939Z,9.48
2023-01-06T11:33:49.659Z,14.30
2023-01-06T11:36:18.747Z,9.90
2023-01-06T11:38:49.032Z,7.85
2023-01-06T11:41:28.159Z,12.73
2023-01-06T11:44:03.428Z,28.45
2023-01-06T11:46:33.260Z,18.40
2023-01-06T11:49:04.431Z,6.90
2023-01-06T11:51:45.786Z,6.90
2023-01-06T11:54:25.114Z,6.60
2023-01-06T11:57:17.714Z,5.45
2023-01-06T12:00:05.809Z,3.58
2023-01-06T12:02:44.303Z,20.77
2023-01-06T12:05:22.810Z,15.57
2023-01-06T12:07:55.771Z,5.40
2023-01-06T12:10:30.355Z,39.78
2023-01-06T12:12:58.351Z,16.35
2023-01-06T12:15:29.968Z,20.55
2023-01-06T12:18:04.288Z,80.93
2023-01-06T12:20:37.809Z,113.35
2023-01-06T12:23:10.039Z,47.60
2023-01-06T12:25:42.599Z,34.40
2023-01-06T12:28:16.937Z,16.45
2023-01-06T12:30:50.757Z,23.30
2023-01-06T12:33:26.781Z,13.38
2023-01-06T12:36:00.312Z,17.05
2023-01-06T12:38:48.487Z,18.92
2023-01-06T12:41:21.237Z,15.35
2023-01-06T12:43:57.578Z,18.08
2023-01-06T12:46:34.206Z,12.82
2023-01-06T12:49:06.630Z,22.40
2023-01-06T12:51:38.073Z,14.13
2023-01-06T12:54:15.106Z,17.63
2023-01-06T12:57:03.915Z,31.85
2023-01-06T12:59:45.410Z,13.95
2023-01-06T13:02:29.705Z,9.48
2023-01-06T13:05:16.353Z,12.70
2023-01-06T13:07:54.893Z,14.23
2023-01-06T13:10:31.601Z,9.93
2023-01-06T13:13:14.888Z,14.15
2023-01-06T13:15:45.683Z,16.85
2023-01-06T13:18:21.333Z,13.77
2023-01-06T13:20:56.752Z,12.50
2023-01-06T13:23:49.082Z,18.83
2023-01-06T13:26:44.453Z,13.75
2023-01-06T13:29:26.642Z,13.60
2023-01-06T13:32:20.703Z,14.73
2023-01-06T13:35:20.500Z,13.55
2023-01-06T13:38:05.451Z,21.00
2023-01-06T13:40:38.018Z,18.35
2023-01-06T13:43:11.339Z,17.17
2023-01-06T13:45:43.623Z,23.85
2023-01-06T13:48:20.082Z,20.58
2023-01-06T13:50:48.056Z,13.50
2023-01-06T13:53:19.979Z,18.65
2023-01-06T13:55:48.024Z,22.58
2023-01-06T13:58:35.684Z,28.08
2023-01-06T14:01:08.539Z,24.50
2023-01-06T14:03:37.481Z,33.20
2023-01-06T14:06:10.062Z,31.80
2023-01-06T14:08:50.945Z,50.72
2023-01-06T14:11:27.478Z,31.98
2023-01-06T14:13:57.445Z,81.13
2023-01-06T14:16:40.531Z,61.28
2023-01-06T14:19:14.603Z,111.20
2023-01-06T14:21:43.155Z,34.30
2023-01-06T14:24:23.167Z,59.90
2023-01-06T14:26:54.113Z,61.72
2023-01-06T14:30:10.410Z,76.25
2023-01-06T14:33:05.462Z,24.88
2023-01-06T14:35:36.926Z,31.33
2023-01-06T14:38:07.345Z,32.60
2023-01-06T14:40:45.885Z,34.92
2023-01-06T14:43:29.841Z,27.35
2023-01-06T14:46:01.739Z,23.98
2023-01-06T14:48:37.133Z,28.10
2023-01-06T14:51:05.674Z,16.63
2023-01-06T14:53:41.152Z,23.95
2023-01-06T14:56:18.170Z,31.75
2023-01-06T14:58:45.887Z,23.52
2023-01-06T15:01:25.410Z,21.88
2023-01-06T15:03:59.535Z,21.20
2023-01-06T15:06:28.942Z,20.77
2023-01-06T15:09:11.271Z,18.35
2023-01-06T15:11:42.885Z,17.50
2023-01-06T15:14:28.576Z,17.58
2023-01-06T15:17:00.217Z,23.42
2023-01-06T15:19:28.411Z,21.17
2023-01-06T15:21:56.088Z,41.53
2023-01-06T15:24:26.159Z,44.65
2023-01-06T15:26:56.708Z,40.38
2023-01-06T15:29:26.590Z,28.40
2023-01-06T15:31:55.021Z,25.73
2023-01-06T15:34:30.157Z,25.60
2023-01-06T15:36:59.048Z,21.48
2023-01-06T15:39:28.317Z,25.38
2023-01-06T15:42:00.786Z,37.08
2023-01-06T15:44:30.677Z,33.00
2023-01-06T15:47:08.015Z,30.35
2023-01-06T15:49:40.019Z,30.83
2023-01-06T15:52:14.147Z,31.10
2023-01-06T15:54:45.270Z,28.50
2023-01-06T15:57:16.843Z,36.75
2023-01-06T15:59:53.907Z,45.92
2023-01-06T16:02:25.109Z,24.15
2023-01-06T16:04:54.691Z,49.22
2023-01-06T16:07:32.893Z,27.30
2023-01-06T16:10:00.957Z,17.75
2023-01-06T16:12:30.430Z,21.10
2023-01-06T16:14:58.137Z,16.48
2023-01-06T16:17:28.748Z,18.23
2023-01-06T16:19:57.908Z,24.20
2023-01-06T16:22:37.225Z,22.88
2023-01-06T16:25:21.572Z,32.55
2023-01-06T16:27:53.172Z,30.05
2023-01-06T16:30:24.247Z,30.73
2023-01-06T16:32:53.647Z,21.30
2023-01-06T16:35:23.320Z,21.08
2023-01-06T16:37:51.357Z,16.30
2023-01-06T16:40:20.529Z,16.30
2023-01-06T16:42:58.031Z,16.20
2023-01-06T16:45:28.855Z,16.85
2023-01-06T16:47:56.628Z,28.13
2023-01-06T16:50:26.501Z,19.70
2023-01-06T16:53:03.063Z,20.98
2023-01-06T16:55:31.850Z,22.60
2023-01-06T16:58:05.630Z,23.95
2023-01-06T17:00:38.492Z,32.22
2023-01-06T17:03:13.315Z,25.85
2023-01-06T17:05:41.239Z,30.17
2023-01-06T17:08:13.581Z,30.77
2023-01-06T17:10:41.721Z,25.23
2023-01-06T17:13:14.791Z,23.98
2023-01-06T17:15:44.436Z,23.15
2023-01-06T17:18:24.376Z,22.10
2023-01-06T17:20:58.242Z,19.63
2023-01-06T17:23:25.756Z,20.15
2023-01-06T17:25:59.373Z,18.50
2023-01-06T17:28:30.835Z,28.70
2023-01-06T17:33:29.061Z,86.18
2023-01-06T17:35:56.796Z,41.05
2023-01-06T17:38:26.125Z,23.60
2023-01-06T17:40:53.681Z,15.23
2023-01-06T17:43:33.191Z,18.33
2023-01-06T17:46:00.901Z,25.92
2023-01-06T17:48:28.437Z,25.05
2023-01-06T17:50:56.635Z,19.45
2023-01-06T17:53:29.388Z,20.45
2023-01-06T17:55:59.119Z,21.63
2023-01-06T17:58:29.836Z,22.17
2023-01-06T18:00:59.785Z,52.97
2023-01-06T18:03:31.348Z,24.70
2023-01-06T18:06:09.256Z,27.63
2023-01-06T18:08:38.350Z,60.10
2023-01-06T18:11:22.895Z,27.38
2023-01-06T18:13:51.268Z,83.55
2023-01-06T18:16:28.567Z,97.22
2023-01-06T18:19:02.120Z,61.65
2023-01-06T18:21:34.008Z,34.92
2023-01-06T18:24:13.033Z,24.38
2023-01-06T18:26:44.256Z,25.05
2023-01-06T18:29:15.381Z,27.60
2023-01-06T18:31:47.810Z,25.02
2023-01-06T18:34:25.402Z,27.48
2023-01-06T18:36:55.003Z,23.35
2023-01-06T18:39:24.892Z,24.23
2023-01-06T18:42:20.288Z,27.13
2023-01-06T18:44:48.151Z,22.95
2023-01-06T18:47:19.301Z,23.48
2023-01-06T18:49:47.134Z,24.45
2023-01-06T18:52:41.234Z,23.92
2023-01-06T18:55:34.659Z,28.85
2023-01-06T18:58:08.282Z,32.17
2023-01-06T19:00:39.606Z,28.50
2023-01-06T19:03:32.175Z,26.70
2023-01-06T19:06:27.875Z,124.07
2023-01-06T19:08:56.804Z,317.10
2023-01-06T19:11:26.932Z,301.05
2023-01-06T19:13:58.603Z,88.72
2023-01-06T19:19:16.872Z,70.22
2023-01-06T19:21:44.969Z,65.90
2023-01-06T19:24:40.751Z,46.42
2023-01-06T19:27:27.413Z,52.78
2023-01-06T19:29:56.396Z,39.85
2023-01-06T19:32:29.942Z,39.28
2023-01-06T19:35:01.157Z,38.05
2023-01-06T19:37:29.238Z,27.52
2023-01-06T19:39:57.927Z,26.55
2023-01-06T19:42:26.793Z,31.70
2023-01-06T19:44:58.576Z,41.30
2023-01-06T19:49:56.459Z,22.23
2023-01-06T19:52:31.953Z,29.67
2023-01-06T19:55:14.574Z,23.70
2023-01-06T19:57:47.092Z,31.02
2023-01-06T20:00:23.468Z,42.83
2023-01-06T20:02:53.954Z,30.08
2023-01-06T20:05:21.913Z,26.90
2023-01-06T20:07:50.991Z,31.55
2023-01-06T20:10:18.694Z,32.05
2023-01-06T20:12:46.666Z,53.10
2023-01-06T20:15:14.800Z,37.15
2023-01-06T20:17:42.570Z,30.73
2023-01-06T20:20:11.505Z,41.85
2023-01-06T20:22:39.107Z,31.17
2023-01-06T20:25:08.933Z,33.90
2023-01-06T20:27:38.610Z,43.90
2023-01-06T20:30:07.182Z,58.50
2023-01-06T20:32:34.991Z,41.78
2023-01-06T20:35:02.808Z,30.02
2023-01-06T20:37:30.640Z,31.90
2023-01-06T20:39:58.603Z,43.10
2023-01-06T20:42:27.953Z,33.38
2023-01-06T20:44:55.791Z,46.53
2023-01-06T20:47:24.169Z,35.08
2023-01-06T20:49:51.886Z,32.92
2023-01-06T20:52:19.683Z,32.00
2023-01-06T20:54:47.546Z,36.20
2023-01-06T20:57:15.164Z,59.60
2023-01-06T20:59:44.163Z,32.63
2023-01-06T21:02:11.977Z,28.92
2023-01-06T21:04:40.171Z,32.17
2023-01-06T21:07:07.728Z,38.60
2023-01-06T21:09:35.523Z,37.50
2023-01-06T21:12:03.388Z,43.30
2023-01-06T21:14:31.089Z,38.40
2023-01-06T21:17:00.231Z,30.88
2023-01-06T21:19:27.908Z,32.70
2023-01-06T21:21:55.496Z,38.00
2023-01-06T21:24:23.149Z,190.10
2023-01-06T21:26:50.930Z,74.85
2023-01-06T21:29:18.473Z,36.78
2023-01-06T21:31:46.173Z,36.67
2023-01-06T21:34:15.256Z,33.58
2023-01-06T21:36:45.093Z,34.50
2023-01-06T21:39:12.947Z,31.83
2023-01-06T21:41:40.470Z,34.03
2023-01-06T21:44:07.988Z,32.35
2023-01-06T21:46:36.492Z,28.30
2023-01-06T21:49:04.135Z,32.20
2023-01-06T21:51:33.987Z,28.33
2023-01-06T21:54:03.106Z,28.63
2023-01-06T21:56:31.434Z,27.63
2023-01-06T21:58:59.098Z,31.85
2023-01-06T22:01:27.063Z,28.48
2023-01-06T22:03:55.058Z,31.02
2023-01-06T22:06:25.207Z,34.75
2023-01-06T22:08:54.719Z,38.10
2023-01-06T22:11:22.545Z,37.75
2023-01-06T22:13:51.645Z,42.83
2023-01-06T22:16:20.070Z,48.47
2023-01-06T22:18:47.783Z,41.97
2023-01-06T22:21:16.672Z,37.85
2023-01-06T22:23:44.457Z,32.25
2023-01-06T22:26:13.660Z,37.47
2023-01-06T22:28:41.574Z,31.60
2023-01-06T22:31:09.337Z,29.52
2023-01-06T22:33:38.433Z,30.83
2023-01-06T22:36:07.293Z,31.15
2023-01-06T22:38:35.048Z,34.88
2023-01-06T22:41:03.728Z,28.83
2023-01-06T22:43:32.982Z,66.97
2023-01-06T22:46:00.713Z,38.75
2023-01-06T22:48:28.479Z,68.90
2023-01-06T22:50:56.629Z,84.10
2023-01-06T22:53:24.319Z,141.43
2023-01-06T22:55:58.847Z,137.45
2023-01-06T22:58:26.880Z,42.30
2023-01-06T23:00:56.184Z,40.15
2023-01-06T23:03:24.989Z,48.10
2023-01-06T23:05:57.253Z,36.95
2023-01-06T23:08:26.915Z,42.03
2023-01-06T23:10:59.703Z,42.13
2023-01-06T23:13:27.814Z,33.90
2023-01-06T23:16:05.621Z,37.70
2023-01-06T23:18:37.236Z,36.22
2023-01-06T23:21:06.819Z,31.85
2023-01-06T23:23:35.631Z,33.35
2023-01-06T23:26:04.312Z,31.65
2023-01-06T23:28:34.438Z,35.10
2023-01-06T23:31:05.397Z,41.50
2023-01-06T23:33:33.259Z,29.02
2023-01-06T23:36:01.558Z,43.13
2023-01-06T23:38:29.895Z,51.22
2023-01-06T23:41:05.186Z,49.55
2023-01-06T23:43:34.419Z,40.53
2023-01-06T23:46:03.035Z,36.17
2023-01-06T23:48:33.208Z,28.73
2023-01-06T23:51:01.482Z,36.60
2023-01-06T23:53:29.759Z,49.53
2023-01-06T23:55:58.991Z,51.78
2023-01-06T23:58:27.736Z,46.90
